<?xml version="1.0" encoding="UTF-8" standalone="no" ?>
<gpx xmlns="http://www.topografix.com/GPX/1/1" xmlns:xsi="http://www.w3.org/2001/XMLSchema-instance" xsi:schemaLocation="http://www.topografix.com/GPX/1/1 http://www.topografix.com/GPX/1/1/gpx.xsd" version="1.1" creator="VisuGPX - https://www.visugpx.com">
  <metadata>
    <name>La Cascade de la Roche et les étangs de l'Isle Crémieu</name>
    <desc><![CDATA[
]]></desc>
  </metadata>
  <wpt lat="45.77968" lon="5.36204">
    <ele>300</ele>
    <name><![CDATA[Parking près de la Cascade de la Roche]]></name>
  </wpt>
  <wpt lat="45.78068" lon="5.36395">
    <ele>278</ele>
    <name><![CDATA[Cascade de la Roche]]></name>
  </wpt>
  <wpt lat="45.7859" lon="5.3597">
    <ele>270</ele>
    <name><![CDATA[A droite, franchir le Furon]]></name>
  </wpt>
  <wpt lat="45.7956" lon="5.36234">
    <ele>256</ele>
    <name><![CDATA[A droite.]]></name>
  </wpt>
  <wpt lat="45.79804" lon="5.36457">
    <ele>258</ele>
    <name><![CDATA[Chemin vers l'étang]]></name>
  </wpt>
  <wpt lat="45.80063" lon="5.3685">
    <ele>270</ele>
    <name><![CDATA[Étang de la Bryne]]></name>
  </wpt>
  <wpt lat="45.80329" lon="5.37148">
    <ele>273</ele>
    <name><![CDATA[Bifurcation vers l'étang]]></name>
  </wpt>
  <wpt lat="45.80063" lon="5.382">
    <ele>294</ele>
    <name><![CDATA[Étang de Montclus ]]></name>
  </wpt>
  <wpt lat="45.7987" lon="5.38517">
    <ele>296</ele>
    <name><![CDATA[Prudence, carrière]]></name>
  </wpt>
  <wpt lat="45.79026" lon="5.39848">
    <ele>303</ele>
    <name><![CDATA[Croix de pierre]]></name>
  </wpt>
  <wpt lat="45.78779" lon="5.38929">
    <ele>319</ele>
    <name><![CDATA[Petit banc de pierre]]></name>
  </wpt>
  <wpt lat="45.78797" lon="5.37384">
    <ele>335</ele>
    <name><![CDATA[Lieu-dit le Taillipied]]></name>
  </wpt>
  <wpt lat="45.77428" lon="5.37991">
    <ele>286</ele>
    <name><![CDATA[Quitter le balisage Jaune]]></name>
  </wpt>
  <wpt lat="45.78115" lon="5.37127">
    <ele>272</ele>
    <name><![CDATA[Chemin discret]]></name>
  </wpt>
  <wpt lat="45.77969" lon="5.36202">
    <ele>300</ele>
    <name><![CDATA[Parking près de la Cascade de la Roche]]></name>
  </wpt>
  <trk>
    <name><![CDATA[La Cascade de la Roche et les étangs de l'Isle Crémieu]]></name>
    <trkseg>
      <trkpt lat="45.77968" lon="5.36204">
        <ele>300</ele>
        <time>2020-03-14T22:48:58+01:00</time>
      </trkpt>
      <trkpt lat="45.77995" lon="5.36258">
        <ele>299</ele>
        <time>2020-03-14T22:49:03+01:00</time>
      </trkpt>
      <trkpt lat="45.78028" lon="5.36294">
        <ele>294</ele>
        <time>2020-03-14T22:49:08+01:00</time>
      </trkpt>
      <trkpt lat="45.78047" lon="5.36352">
        <ele>287</ele>
        <time>2020-03-14T22:49:13+01:00</time>
      </trkpt>
      <trkpt lat="45.78035" lon="5.36391">
        <ele>283</ele>
        <time>2020-03-14T22:49:18+01:00</time>
      </trkpt>
      <trkpt lat="45.78005" lon="5.36419">
        <ele>283</ele>
        <time>2020-03-14T22:49:23+01:00</time>
      </trkpt>
      <trkpt lat="45.78068" lon="5.36395">
        <ele>278</ele>
        <time>2020-03-14T22:49:28+01:00</time>
      </trkpt>
      <trkpt lat="45.78219" lon="5.36286">
        <ele>279</ele>
        <time>2020-03-14T22:49:33+01:00</time>
      </trkpt>
      <trkpt lat="45.78373" lon="5.36189">
        <ele>276</ele>
        <time>2020-03-14T22:49:38+01:00</time>
      </trkpt>
      <trkpt lat="45.78499" lon="5.36082">
        <ele>272</ele>
        <time>2020-03-14T22:49:43+01:00</time>
      </trkpt>
      <trkpt lat="45.7859" lon="5.3597">
        <ele>270</ele>
        <time>2020-03-14T22:49:48+01:00</time>
      </trkpt>
      <trkpt lat="45.78599" lon="5.3611">
        <ele>264</ele>
        <time>2020-03-14T22:49:53+01:00</time>
      </trkpt>
      <trkpt lat="45.78638" lon="5.36125">
        <ele>263</ele>
        <time>2020-03-14T22:49:58+01:00</time>
      </trkpt>
      <trkpt lat="45.78664" lon="5.36125">
        <ele>263</ele>
        <time>2020-03-14T22:50:03+01:00</time>
      </trkpt>
      <trkpt lat="45.78724" lon="5.36163">
        <ele>264</ele>
        <time>2020-03-14T22:50:08+01:00</time>
      </trkpt>
      <trkpt lat="45.78824" lon="5.36185">
        <ele>263</ele>
        <time>2020-03-14T22:50:13+01:00</time>
      </trkpt>
      <trkpt lat="45.78903" lon="5.36213">
        <ele>263</ele>
        <time>2020-03-14T22:50:18+01:00</time>
      </trkpt>
      <trkpt lat="45.79017" lon="5.36172">
        <ele>262</ele>
        <time>2020-03-14T22:50:23+01:00</time>
      </trkpt>
      <trkpt lat="45.79101" lon="5.36163">
        <ele>260</ele>
        <time>2020-03-14T22:50:28+01:00</time>
      </trkpt>
      <trkpt lat="45.79131" lon="5.36118">
        <ele>259</ele>
        <time>2020-03-14T22:50:33+01:00</time>
      </trkpt>
      <trkpt lat="45.79202" lon="5.3609">
        <ele>257</ele>
        <time>2020-03-14T22:50:38+01:00</time>
      </trkpt>
      <trkpt lat="45.79309" lon="5.36114">
        <ele>255</ele>
        <time>2020-03-14T22:50:43+01:00</time>
      </trkpt>
      <trkpt lat="45.7956" lon="5.36234">
        <ele>256</ele>
        <time>2020-03-14T22:50:48+01:00</time>
      </trkpt>
      <trkpt lat="45.79614" lon="5.36335">
        <ele>258</ele>
        <time>2020-03-14T22:50:53+01:00</time>
      </trkpt>
      <trkpt lat="45.79754" lon="5.36401">
        <ele>258</ele>
        <time>2020-03-14T22:50:58+01:00</time>
      </trkpt>
      <trkpt lat="45.79804" lon="5.36457">
        <ele>258</ele>
        <time>2020-03-14T22:51:03+01:00</time>
      </trkpt>
      <trkpt lat="45.79892" lon="5.36584">
        <ele>263</ele>
        <time>2020-03-14T22:51:08+01:00</time>
      </trkpt>
      <trkpt lat="45.79955" lon="5.36678">
        <ele>268</ele>
        <time>2020-03-14T22:51:13+01:00</time>
      </trkpt>
      <trkpt lat="45.80037" lon="5.36768">
        <ele>270</ele>
        <time>2020-03-14T22:51:18+01:00</time>
      </trkpt>
      <trkpt lat="45.80063" lon="5.3685">
        <ele>270</ele>
        <time>2020-03-14T22:51:23+01:00</time>
      </trkpt>
      <trkpt lat="45.80112" lon="5.36938">
        <ele>268</ele>
        <time>2020-03-14T22:51:28+01:00</time>
      </trkpt>
      <trkpt lat="45.80134" lon="5.3703">
        <ele>267</ele>
        <time>2020-03-14T22:51:33+01:00</time>
      </trkpt>
      <trkpt lat="45.80245" lon="5.37071">
        <ele>269</ele>
        <time>2020-03-14T22:51:38+01:00</time>
      </trkpt>
      <trkpt lat="45.80281" lon="5.3712">
        <ele>271</ele>
        <time>2020-03-14T22:51:43+01:00</time>
      </trkpt>
      <trkpt lat="45.80329" lon="5.37148">
        <ele>273</ele>
        <time>2020-03-14T22:51:48+01:00</time>
      </trkpt>
      <trkpt lat="45.80279" lon="5.37294">
        <ele>275</ele>
        <time>2020-03-14T22:51:53+01:00</time>
      </trkpt>
      <trkpt lat="45.80208" lon="5.37419">
        <ele>274</ele>
        <time>2020-03-14T22:51:58+01:00</time>
      </trkpt>
      <trkpt lat="45.80197" lon="5.3753">
        <ele>280</ele>
        <time>2020-03-14T22:52:03+01:00</time>
      </trkpt>
      <trkpt lat="45.80146" lon="5.37642">
        <ele>285</ele>
        <time>2020-03-14T22:52:08+01:00</time>
      </trkpt>
      <trkpt lat="45.80086" lon="5.37777">
        <ele>292</ele>
        <time>2020-03-14T22:52:13+01:00</time>
      </trkpt>
      <trkpt lat="45.80101" lon="5.37848">
        <ele>295</ele>
        <time>2020-03-14T22:52:18+01:00</time>
      </trkpt>
      <trkpt lat="45.80091" lon="5.37893">
        <ele>296</ele>
        <time>2020-03-14T22:52:23+01:00</time>
      </trkpt>
      <trkpt lat="45.80069" lon="5.37912">
        <ele>295</ele>
        <time>2020-03-14T22:52:28+01:00</time>
      </trkpt>
      <trkpt lat="45.80039" lon="5.37991">
        <ele>294</ele>
        <time>2020-03-14T22:52:33+01:00</time>
      </trkpt>
      <trkpt lat="45.80049" lon="5.38144">
        <ele>294</ele>
        <time>2020-03-14T22:52:38+01:00</time>
      </trkpt>
      <trkpt lat="45.80063" lon="5.382">
        <ele>294</ele>
        <time>2020-03-14T22:52:43+01:00</time>
      </trkpt>
      <trkpt lat="45.80018" lon="5.38296">
        <ele>292</ele>
        <time>2020-03-14T22:52:48+01:00</time>
      </trkpt>
      <trkpt lat="45.7987" lon="5.38517">
        <ele>296</ele>
        <time>2020-03-14T22:52:53+01:00</time>
      </trkpt>
      <trkpt lat="45.79823" lon="5.38661">
        <ele>296</ele>
        <time>2020-03-14T22:52:58+01:00</time>
      </trkpt>
      <trkpt lat="45.79844" lon="5.38715">
        <ele>298</ele>
        <time>2020-03-14T22:53:03+01:00</time>
      </trkpt>
      <trkpt lat="45.79784" lon="5.38841">
        <ele>301</ele>
        <time>2020-03-14T22:53:08+01:00</time>
      </trkpt>
      <trkpt lat="45.79738" lon="5.38991">
        <ele>300</ele>
        <time>2020-03-14T22:53:13+01:00</time>
      </trkpt>
      <trkpt lat="45.79698" lon="5.39154">
        <ele>302</ele>
        <time>2020-03-14T22:53:18+01:00</time>
      </trkpt>
      <trkpt lat="45.79636" lon="5.39294">
        <ele>294</ele>
        <time>2020-03-14T22:53:23+01:00</time>
      </trkpt>
      <trkpt lat="45.79527" lon="5.39401">
        <ele>292</ele>
        <time>2020-03-14T22:53:28+01:00</time>
      </trkpt>
      <trkpt lat="45.79424" lon="5.39478">
        <ele>294</ele>
        <time>2020-03-14T22:53:33+01:00</time>
      </trkpt>
      <trkpt lat="45.79406" lon="5.39569">
        <ele>294</ele>
        <time>2020-03-14T22:53:38+01:00</time>
      </trkpt>
      <trkpt lat="45.79356" lon="5.39618">
        <ele>295</ele>
        <time>2020-03-14T22:53:43+01:00</time>
      </trkpt>
      <trkpt lat="45.79297" lon="5.39702">
        <ele>298</ele>
        <time>2020-03-14T22:53:48+01:00</time>
      </trkpt>
      <trkpt lat="45.79243" lon="5.39732">
        <ele>300</ele>
        <time>2020-03-14T22:53:53+01:00</time>
      </trkpt>
      <trkpt lat="45.79211" lon="5.3974">
        <ele>300</ele>
        <time>2020-03-14T22:53:58+01:00</time>
      </trkpt>
      <trkpt lat="45.79153" lon="5.39792">
        <ele>300</ele>
        <time>2020-03-14T22:54:03+01:00</time>
      </trkpt>
      <trkpt lat="45.79099" lon="5.39826">
        <ele>301</ele>
        <time>2020-03-14T22:54:08+01:00</time>
      </trkpt>
      <trkpt lat="45.79026" lon="5.39848">
        <ele>303</ele>
        <time>2020-03-14T22:54:13+01:00</time>
      </trkpt>
      <trkpt lat="45.78943" lon="5.39513">
        <ele>302</ele>
        <time>2020-03-14T22:54:18+01:00</time>
      </trkpt>
      <trkpt lat="45.78933" lon="5.39438">
        <ele>300</ele>
        <time>2020-03-14T22:54:23+01:00</time>
      </trkpt>
      <trkpt lat="45.78908" lon="5.39352">
        <ele>298</ele>
        <time>2020-03-14T22:54:28+01:00</time>
      </trkpt>
      <trkpt lat="45.78891" lon="5.39232">
        <ele>296</ele>
        <time>2020-03-14T22:54:33+01:00</time>
      </trkpt>
      <trkpt lat="45.78908" lon="5.39172">
        <ele>297</ele>
        <time>2020-03-14T22:54:38+01:00</time>
      </trkpt>
      <trkpt lat="45.78882" lon="5.38989">
        <ele>306</ele>
        <time>2020-03-14T22:54:43+01:00</time>
      </trkpt>
      <trkpt lat="45.78779" lon="5.38929">
        <ele>319</ele>
        <time>2020-03-14T22:54:48+01:00</time>
      </trkpt>
      <trkpt lat="45.78878" lon="5.38798">
        <ele>327</ele>
        <time>2020-03-14T22:54:53+01:00</time>
      </trkpt>
      <trkpt lat="45.78906" lon="5.38706">
        <ele>332</ele>
        <time>2020-03-14T22:54:58+01:00</time>
      </trkpt>
      <trkpt lat="45.78896" lon="5.38618">
        <ele>337</ele>
        <time>2020-03-14T22:55:03+01:00</time>
      </trkpt>
      <trkpt lat="45.78911" lon="5.38358">
        <ele>331</ele>
        <time>2020-03-14T22:55:08+01:00</time>
      </trkpt>
      <trkpt lat="45.78924" lon="5.38264">
        <ele>332</ele>
        <time>2020-03-14T22:55:13+01:00</time>
      </trkpt>
      <trkpt lat="45.78875" lon="5.38056">
        <ele>332</ele>
        <time>2020-03-14T22:55:18+01:00</time>
      </trkpt>
      <trkpt lat="45.78839" lon="5.37959">
        <ele>330</ele>
        <time>2020-03-14T22:55:23+01:00</time>
      </trkpt>
      <trkpt lat="45.78857" lon="5.3791">
        <ele>331</ele>
        <time>2020-03-14T22:55:28+01:00</time>
      </trkpt>
      <trkpt lat="45.78842" lon="5.37766">
        <ele>331</ele>
        <time>2020-03-14T22:55:33+01:00</time>
      </trkpt>
      <trkpt lat="45.78861" lon="5.37693">
        <ele>332</ele>
        <time>2020-03-14T22:55:38+01:00</time>
      </trkpt>
      <trkpt lat="45.78834" lon="5.37496">
        <ele>333</ele>
        <time>2020-03-14T22:55:43+01:00</time>
      </trkpt>
      <trkpt lat="45.78822" lon="5.37442">
        <ele>335</ele>
        <time>2020-03-14T22:55:48+01:00</time>
      </trkpt>
      <trkpt lat="45.78797" lon="5.37384">
        <ele>335</ele>
        <time>2020-03-14T22:55:53+01:00</time>
      </trkpt>
      <trkpt lat="45.78641" lon="5.37543">
        <ele>332</ele>
        <time>2020-03-14T22:55:58+01:00</time>
      </trkpt>
      <trkpt lat="45.78496" lon="5.37706">
        <ele>330</ele>
        <time>2020-03-14T22:56:03+01:00</time>
      </trkpt>
      <trkpt lat="45.78393" lon="5.37785">
        <ele>325</ele>
        <time>2020-03-14T22:56:08+01:00</time>
      </trkpt>
      <trkpt lat="45.7837" lon="5.37826">
        <ele>323</ele>
        <time>2020-03-14T22:56:13+01:00</time>
      </trkpt>
      <trkpt lat="45.78299" lon="5.37852">
        <ele>321</ele>
        <time>2020-03-14T22:56:18+01:00</time>
      </trkpt>
      <trkpt lat="45.78231" lon="5.37895">
        <ele>321</ele>
        <time>2020-03-14T22:56:23+01:00</time>
      </trkpt>
      <trkpt lat="45.78158" lon="5.37861">
        <ele>318</ele>
        <time>2020-03-14T22:56:28+01:00</time>
      </trkpt>
      <trkpt lat="45.78055" lon="5.37921">
        <ele>314</ele>
        <time>2020-03-14T22:56:33+01:00</time>
      </trkpt>
      <trkpt lat="45.78023" lon="5.38015">
        <ele>315</ele>
        <time>2020-03-14T22:56:38+01:00</time>
      </trkpt>
      <trkpt lat="45.77963" lon="5.38047">
        <ele>310</ele>
        <time>2020-03-14T22:56:43+01:00</time>
      </trkpt>
      <trkpt lat="45.77903" lon="5.38129">
        <ele>309</ele>
        <time>2020-03-14T22:56:48+01:00</time>
      </trkpt>
      <trkpt lat="45.7788" lon="5.38159">
        <ele>308</ele>
        <time>2020-03-14T22:56:53+01:00</time>
      </trkpt>
      <trkpt lat="45.7785" lon="5.38227">
        <ele>307</ele>
        <time>2020-03-14T22:56:58+01:00</time>
      </trkpt>
      <trkpt lat="45.77692" lon="5.38247">
        <ele>313</ele>
        <time>2020-03-14T22:57:03+01:00</time>
      </trkpt>
      <trkpt lat="45.77627" lon="5.38159">
        <ele>307</ele>
        <time>2020-03-14T22:57:08+01:00</time>
      </trkpt>
      <trkpt lat="45.77546" lon="5.38097">
        <ele>301</ele>
        <time>2020-03-14T22:57:13+01:00</time>
      </trkpt>
      <trkpt lat="45.77504" lon="5.38109">
        <ele>302</ele>
        <time>2020-03-14T22:57:18+01:00</time>
      </trkpt>
      <trkpt lat="45.77466" lon="5.38144">
        <ele>301</ele>
        <time>2020-03-14T22:57:23+01:00</time>
      </trkpt>
      <trkpt lat="45.77426" lon="5.38137">
        <ele>293</ele>
        <time>2020-03-14T22:57:28+01:00</time>
      </trkpt>
      <trkpt lat="45.77444" lon="5.38107">
        <ele>293</ele>
        <time>2020-03-14T22:57:33+01:00</time>
      </trkpt>
      <trkpt lat="45.77428" lon="5.37991">
        <ele>286</ele>
        <time>2020-03-14T22:57:38+01:00</time>
      </trkpt>
      <trkpt lat="45.7742" lon="5.37991">
        <ele>285</ele>
        <time>2020-03-14T22:57:43+01:00</time>
      </trkpt>
      <trkpt lat="45.77458" lon="5.37863">
        <ele>281</ele>
        <time>2020-03-14T22:57:48+01:00</time>
      </trkpt>
      <trkpt lat="45.77553" lon="5.37796">
        <ele>282</ele>
        <time>2020-03-14T22:57:53+01:00</time>
      </trkpt>
      <trkpt lat="45.77637" lon="5.37532">
        <ele>279</ele>
        <time>2020-03-14T22:57:58+01:00</time>
      </trkpt>
      <trkpt lat="45.77684" lon="5.37427">
        <ele>277</ele>
        <time>2020-03-14T22:58:03+01:00</time>
      </trkpt>
      <trkpt lat="45.77772" lon="5.37328">
        <ele>272</ele>
        <time>2020-03-14T22:58:08+01:00</time>
      </trkpt>
      <trkpt lat="45.78068" lon="5.3715">
        <ele>271</ele>
        <time>2020-03-14T22:58:13+01:00</time>
      </trkpt>
      <trkpt lat="45.78115" lon="5.37127">
        <ele>272</ele>
        <time>2020-03-14T22:58:18+01:00</time>
      </trkpt>
      <trkpt lat="45.78043" lon="5.37015">
        <ele>271</ele>
        <time>2020-03-14T22:58:23+01:00</time>
      </trkpt>
      <trkpt lat="45.78011" lon="5.36994">
        <ele>271</ele>
        <time>2020-03-14T22:58:28+01:00</time>
      </trkpt>
      <trkpt lat="45.7801" lon="5.36919">
        <ele>269</ele>
        <time>2020-03-14T22:58:33+01:00</time>
      </trkpt>
      <trkpt lat="45.77945" lon="5.36818">
        <ele>265</ele>
        <time>2020-03-14T22:58:38+01:00</time>
      </trkpt>
      <trkpt lat="45.7799" lon="5.367">
        <ele>264</ele>
        <time>2020-03-14T22:58:43+01:00</time>
      </trkpt>
      <trkpt lat="45.78005" lon="5.36631">
        <ele>265</ele>
        <time>2020-03-14T22:58:48+01:00</time>
      </trkpt>
      <trkpt lat="45.78091" lon="5.36562">
        <ele>268</ele>
        <time>2020-03-14T22:58:53+01:00</time>
      </trkpt>
      <trkpt lat="45.78046" lon="5.36434">
        <ele>276</ele>
        <time>2020-03-14T22:58:58+01:00</time>
      </trkpt>
      <trkpt lat="45.78017" lon="5.36412">
        <ele>282</ele>
        <time>2020-03-14T22:59:03+01:00</time>
      </trkpt>
      <trkpt lat="45.78049" lon="5.36359">
        <ele>286</ele>
        <time>2020-03-14T22:59:08+01:00</time>
      </trkpt>
      <trkpt lat="45.78031" lon="5.36298">
        <ele>294</ele>
        <time>2020-03-14T22:59:13+01:00</time>
      </trkpt>
      <trkpt lat="45.77983" lon="5.36238">
        <ele>300</ele>
        <time>2020-03-14T22:59:18+01:00</time>
      </trkpt>
      <trkpt lat="45.77969" lon="5.36202">
        <ele>300</ele>
        <time>2020-03-14T22:59:23+01:00</time>
      </trkpt>
    </trkseg>
  </trk>
</gpx>